createdAt,value
2022-12-27T00:00:17.820Z,17.34
2022-12-27T00:03:20.528Z,17.28
2022-12-27T00:06:25.574Z,17.23
2022-12-27T00:09:28.244Z,17.37
2022-12-27T00:12:30.346Z,17.25
2022-12-27T00:15:36.810Z,17.28
2022-12-27T00:18:40.719Z,17.29
2022-12-27T00:21:42.900Z,17.30
2022-12-27T00:24:45.284Z,17.26
2022-12-27T00:27:49.821Z,17.15
2022-12-27T00:30:57.064Z,17.20
2022-12-27T00:34:04.425Z,16.93
2022-12-27T00:37:06.545Z,16.98
2022-12-27T00:40:15.418Z,16.93
2022-12-27T00:43:17.605Z,16.77
2022-12-27T00:46:20.754Z,16.68
2022-12-27T00:49:23.184Z,16.70
2022-12-27T00:52:25.405Z,16.68
2022-12-27T00:55:27.510Z,16.66
2022-12-27T00:58:29.707Z,16.56
2022-12-27T01:01:35.220Z,16.66
2022-12-27T01:04:37.243Z,16.61
2022-12-27T01:07:39.857Z,16.83
2022-12-27T01:10:42.177Z,16.80
2022-12-27T01:13:47.351Z,16.89
2022-12-27T01:16:49.902Z,16.82
2022-12-27T01:19:52.831Z,16.86
2022-12-27T01:22:55.100Z,16.82
2022-12-27T01:26:06.453Z,16.88
2022-12-27T01:29:12.588Z,16.70
2022-12-27T01:32:15.830Z,16.65
2022-12-27T01:35:18.236Z,16.72
2022-12-27T01:38:20.640Z,16.62
2022-12-27T01:41:52.593Z,16.55
2022-12-27T01:44:57.872Z,16.41
2022-12-27T01:48:10.425Z,16.39
2022-12-27T01:51:12.860Z,16.42
2022-12-27T01:54:15.209Z,16.35
2022-12-27T01:57:17.565Z,16.23
2022-12-27T02:00:20.344Z,16.23
2022-12-27T02:03:30.539Z,16.32
2022-12-27T02:06:34.213Z,16.28
2022-12-27T02:09:44.807Z,16.24
2022-12-27T02:12:47.285Z,16.11
2022-12-27T02:15:49.893Z,15.80
2022-12-27T02:18:51.905Z,15.61
2022-12-27T02:22:21.135Z,16.63
2022-12-27T02:25:45.793Z,16.87
2022-12-27T02:29:06.107Z,16.52
2022-12-27T02:32:35.370Z,16.33
2022-12-27T02:35:43.469Z,16.32
2022-12-27T02:38:51.005Z,16.33
2022-12-27T02:42:13.642Z,16.24
2022-12-27T02:45:39.812Z,16.19
2022-12-27T02:49:12.701Z,16.24
2022-12-27T02:52:55.172Z,16.27
2022-12-27T02:56:38.953Z,16.28
2022-12-27T03:00:23.878Z,16.42
2022-12-27T03:04:07.165Z,16.44
2022-12-27T03:07:14.951Z,16.44
2022-12-27T03:11:11.584Z,16.44
2022-12-27T03:14:54.104Z,16.35
2022-12-27T03:18:12.053Z,16.38
2022-12-27T03:21:42.450Z,16.30
2022-12-27T03:25:03.253Z,16.30
2022-12-27T03:28:28.937Z,16.28
2022-12-27T03:31:53.624Z,16.08
2022-12-27T03:35:10.763Z,16.09
2022-12-27T03:38:15.207Z,16.06
2022-12-27T03:42:17.327Z,16.03
2022-12-27T03:45:21.978Z,16.19
2022-12-27T03:48:26.905Z,16.08
2022-12-27T03:51:37.531Z,16.27
2022-12-27T03:54:42.248Z,16.18
2022-12-27T03:57:44.711Z,16.17
2022-12-27T04:00:47.585Z,16.09
2022-12-27T04:03:49.621Z,16.07
2022-12-27T04:06:51.844Z,16.14
2022-12-27T04:10:12.880Z,15.93
2022-12-27T04:13:33.823Z,15.97
2022-12-27T04:16:54.780Z,16.02
2022-12-27T04:20:15.703Z,15.93
2022-12-27T04:23:40.734Z,15.83
2022-12-27T04:27:02.224Z,15.79
2022-12-27T04:30:23.223Z,15.76
2022-12-27T04:33:43.756Z,15.76
2022-12-27T04:36:46.323Z,15.68
2022-12-27T04:40:06.880Z,15.79
2022-12-27T04:43:28.072Z,15.75
2022-12-27T04:46:49.449Z,15.64
2022-12-27T04:50:10.419Z,15.73
2022-12-27T04:53:34.243Z,15.60
2022-12-27T04:56:36.241Z,15.74
2022-12-27T04:59:57.269Z,15.73
2022-12-27T05:03:01.066Z,15.67
2022-12-27T05:06:04.129Z,15.70
2022-12-27T05:09:35.682Z,15.65
2022-12-27T05:12:56.233Z,15.67
2022-12-27T05:15:58.371Z,15.54
2022-12-27T05:19:00.517Z,15.47
2022-12-27T05:22:21.287Z,15.37
2022-12-27T05:25:35.648Z,15.31
2022-12-27T05:28:37.735Z,15.24
2022-12-27T05:31:39.973Z,15.26
2022-12-27T05:34:42.282Z,15.21
2022-12-27T05:37:47.638Z,15.34
2022-12-27T05:40:52.124Z,15.14
2022-12-27T05:43:54.188Z,15.66
2022-12-27T05:46:56.341Z,15.55
2022-12-27T05:49:58.458Z,16.19
2022-12-27T05:53:00.473Z,16.80
2022-12-27T05:56:02.803Z,17.26
2022-12-27T05:59:05.628Z,17.01
2022-12-27T06:02:07.725Z,17.28
2022-12-27T06:05:10.716Z,17.82
2022-12-27T06:08:13.188Z,17.87
2022-12-27T06:11:17.944Z,17.97
2022-12-27T06:14:20.093Z,18.26
2022-12-27T06:17:22.286Z,18.24
2022-12-27T06:20:24.529Z,18.59
2022-12-27T06:23:26.597Z,18.88
2022-12-27T06:26:30.169Z,18.64
2022-12-27T06:29:32.407Z,18.98
2022-12-27T06:32:35.452Z,19.19
2022-12-27T06:35:37.531Z,19.08
2022-12-27T06:38:39.995Z,19.23
2022-12-27T06:41:42.100Z,19.10
2022-12-27T06:44:44.196Z,18.92
2022-12-27T06:47:46.217Z,19.08
2022-12-27T06:50:48.268Z,19.11
2022-12-27T06:53:50.649Z,19.17
2022-12-27T06:56:52.713Z,19.33
2022-12-27T06:59:54.731Z,19.27
2022-12-27T07:02:56.787Z,20.27
2022-12-27T07:06:02.609Z,21.55
2022-12-27T07:09:06.015Z,22.54
2022-12-27T07:12:08.116Z,23.26
2022-12-27T07:15:10.738Z,23.59
2022-12-27T07:18:12.918Z,22.23
2022-12-27T07:21:17.970Z,21.11
2022-12-27T07:24:20.100Z,20.40
2022-12-27T07:27:22.091Z,19.60
2022-12-27T07:30:24.155Z,19.39
2022-12-27T07:33:26.557Z,19.16
2022-12-27T07:36:32.720Z,19.08
2022-12-27T07:39:34.776Z,18.83
2022-12-27T07:42:36.761Z,18.69
2022-12-27T07:45:38.828Z,18.60
2022-12-27T07:48:45.231Z,18.53
2022-12-27T07:51:47.217Z,18.49
2022-12-27T07:54:50.320Z,18.38
2022-12-27T07:57:52.412Z,18.26
2022-12-27T08:00:54.483Z,18.12
2022-12-27T08:03:56.909Z,18.02
2022-12-27T08:07:08.958Z,17.94
2022-12-27T08:10:12.050Z,17.89
2022-12-27T08:13:14.973Z,17.90
2022-12-27T08:16:20.604Z,17.79
2022-12-27T08:19:31.072Z,17.68
2022-12-27T08:22:33.231Z,17.64
2022-12-27T08:25:40.924Z,17.66
2022-12-27T08:28:46.993Z,17.62
2022-12-27T08:31:49.292Z,17.63
2022-12-27T08:34:51.278Z,17.56
2022-12-27T08:37:53.378Z,17.48
2022-12-27T08:40:55.771Z,17.58
2022-12-27T08:43:57.852Z,17.46
2022-12-27T08:46:59.928Z,17.46
2022-12-27T08:50:01.929Z,17.46
2022-12-27T08:53:06.116Z,17.57
2022-12-27T08:56:08.199Z,17.55
2022-12-27T08:59:10.253Z,17.50
2022-12-27T09:02:13.007Z,17.66
2022-12-27T09:05:15.937Z,17.62
2022-12-27T09:08:18.035Z,17.59
2022-12-27T09:11:31.625Z,17.54
2022-12-27T09:14:34.054Z,17.56
2022-12-27T09:17:36.301Z,17.47
2022-12-27T09:20:38.817Z,17.32
2022-12-27T09:23:41.566Z,17.42
2022-12-27T09:26:43.712Z,17.37
2022-12-27T09:29:48.453Z,17.22
2022-12-27T09:32:51.079Z,17.26
2022-12-27T09:35:53.245Z,17.26
2022-12-27T09:38:56.498Z,17.21
2022-12-27T09:45:41.082Z,17.31
2022-12-27T09:48:43.124Z,17.24
2022-12-27T09:51:54.462Z,17.32
2022-12-27T09:55:08.289Z,17.32
2022-12-27T09:58:36.644Z,17.31
2022-12-27T10:01:44.734Z,17.38
2022-12-27T10:05:18.583Z,17.45
2022-12-27T10:08:18.256Z,17.61
2022-12-27T10:11:38.881Z,17.80
2022-12-27T10:15:05.603Z,17.57
2022-12-27T10:18:26.119Z,17.40
2022-12-27T10:21:30.281Z,17.69
2022-12-27T10:24:44.908Z,17.79
2022-12-27T10:27:48.559Z,17.60
2022-12-27T10:30:50.570Z,17.37
2022-12-27T10:33:53.368Z,17.33
2022-12-27T10:36:55.451Z,17.95
2022-12-27T10:40:13.386Z,17.75
2022-12-27T10:43:20.040Z,17.55
2022-12-27T10:46:32.756Z,17.56
2022-12-27T10:49:36.597Z,17.60
2022-12-27T10:52:38.776Z,17.57
2022-12-27T10:55:40.800Z,17.43
2022-12-27T10:58:58.587Z,17.36
2022-12-27T11:02:02.586Z,17.12
2022-12-27T11:05:05.153Z,17.04
2022-12-27T11:08:20.952Z,17.25
2022-12-27T11:11:25.878Z,17.27
2022-12-27T11:14:27.869Z,17.06
2022-12-27T11:17:43.666Z,16.97
2022-12-27T11:20:57.944Z,16.83
2022-12-27T11:24:02.406Z,16.72
2022-12-27T11:27:04.827Z,17.67
2022-12-27T11:30:20.176Z,18.31
2022-12-27T11:33:42.499Z,18.67
2022-12-27T11:36:48.978Z,18.67
2022-12-27T11:40:10.498Z,19.15
2022-12-27T11:43:19.648Z,19.36
2022-12-27T11:46:31.039Z,19.55
2022-12-27T11:49:36.863Z,19.66
2022-12-27T11:52:51.422Z,19.78
2022-12-27T11:56:06.684Z,19.81
2022-12-27T11:59:35.216Z,19.84
2022-12-27T12:03:01.427Z,19.85
2022-12-27T12:06:06.302Z,19.85
2022-12-27T12:09:45.568Z,19.46
2022-12-27T12:12:59.394Z,18.40
2022-12-27T12:16:24.219Z,17.76
2022-12-27T12:20:04.176Z,17.34
2022-12-27T12:23:13.172Z,17.03
2022-12-27T12:26:23.229Z,16.92
2022-12-27T12:30:26.997Z,16.84
2022-12-27T12:33:50.101Z,16.88
2022-12-27T12:37:30.928Z,16.82
2022-12-27T12:40:58.014Z,16.81
2022-12-27T12:44:09.061Z,16.75
2022-12-27T12:47:35.479Z,16.70
2022-12-27T12:50:44.177Z,16.67
2022-12-27T12:54:01.320Z,16.69
2022-12-27T12:57:15.310Z,16.94
2022-12-27T13:00:40.156Z,17.15
2022-12-27T13:03:50.414Z,17.33
2022-12-27T13:07:40.998Z,17.55
2022-12-27T13:11:02.227Z,17.46
2022-12-27T13:14:16.241Z,17.59
2022-12-27T13:17:43.462Z,17.69
2022-12-27T13:21:26.143Z,17.80
2022-12-27T13:24:50.799Z,17.99
2022-12-27T13:28:09.505Z,18.17
2022-12-27T13:31:52.305Z,18.40
2022-12-27T13:35:20.220Z,18.50
2022-12-27T13:38:33.306Z,18.49
2022-12-27T13:41:44.375Z,18.55
2022-12-27T13:45:20.367Z,18.42
2022-12-27T13:48:42.746Z,18.51
2022-12-27T13:51:52.141Z,18.76
2022-12-27T13:55:16.813Z,18.75
2022-12-27T13:58:37.250Z,18.68
2022-12-27T14:01:58.823Z,18.51
2022-12-27T14:05:35.338Z,18.34
2022-12-27T14:08:56.093Z,18.41
2022-12-27T14:12:29.562Z,18.13
2022-12-27T14:15:31.497Z,18.13
2022-12-27T14:19:03.125Z,18.08
2022-12-27T14:22:17.162Z,18.12
2022-12-27T14:25:46.950Z,18.10
2022-12-27T14:29:01.339Z,18.12
2022-12-27T14:32:21.951Z,18.22
2022-12-27T14:35:54.815Z,18.22
2022-12-27T14:39:12.689Z,18.15
2022-12-27T14:42:29.453Z,18.21
2022-12-27T14:46:05.195Z,18.16
2022-12-27T14:49:24.385Z,18.21
2022-12-27T14:52:54.136Z,18.10
2022-12-27T14:56:24.765Z,18.00
2022-12-27T14:59:40.980Z,18.00
2022-12-27T15:02:49.327Z,18.03
2022-12-27T15:05:57.740Z,17.91
2022-12-27T15:09:23.791Z,17.91
2022-12-27T15:12:35.431Z,17.94
2022-12-27T15:15:52.732Z,17.93
2022-12-27T15:19:10.138Z,17.80
2022-12-27T15:22:34.953Z,17.89
2022-12-27T15:26:01.210Z,18.02
2022-12-27T15:29:03.312Z,18.21
2022-12-27T15:32:26.595Z,18.29
2022-12-27T15:35:28.777Z,18.38
2022-12-27T15:38:54.520Z,18.27
2022-12-27T15:42:22.947Z,18.46
2022-12-27T15:45:42.978Z,18.46
2022-12-27T15:49:09.731Z,18.32
2022-12-27T15:52:48.638Z,18.02
2022-12-27T15:55:59.737Z,18.13
2022-12-27T15:59:39.041Z,18.23
2022-12-27T16:02:44.044Z,18.31
2022-12-27T16:05:52.492Z,18.24
2022-12-27T16:09:23.606Z,18.08
2022-12-27T16:12:37.705Z,17.99
2022-12-27T16:15:51.173Z,17.41
2022-12-27T16:19:03.132Z,17.28
2022-12-27T16:22:34.640Z,17.39
2022-12-27T16:25:43.661Z,17.42
2022-12-27T16:29:03.308Z,17.28
2022-12-27T16:32:32.018Z,17.40
2022-12-27T16:35:34.060Z,17.42
2022-12-27T16:38:39.664Z,17.43
2022-12-27T16:41:57.168Z,17.71
2022-12-27T16:45:23.190Z,17.54
2022-12-27T16:48:49.635Z,17.63
2022-12-27T16:52:23.513Z,17.50
2022-12-27T16:56:04.649Z,17.45
2022-12-27T16:59:26.450Z,17.33
2022-12-27T17:02:38.393Z,17.27
2022-12-27T17:05:52.943Z,17.13
2022-12-27T17:09:08.784Z,16.89
2022-12-27T17:12:17.824Z,16.85
2022-12-27T17:15:22.307Z,16.75
2022-12-27T17:18:33.777Z,16.87
2022-12-27T17:21:41.685Z,16.88
2022-12-27T17:24:47.785Z,16.90
2022-12-27T17:28:05.623Z,16.78
2022-12-27T17:31:22.614Z,16.79
2022-12-27T17:34:36.846Z,16.72
2022-12-27T17:38:16.345Z,16.65
2022-12-27T17:42:07.300Z,16.64
2022-12-27T17:45:18.269Z,16.64
2022-12-27T17:48:29.370Z,16.51
2022-12-27T17:51:34.595Z,16.40
2022-12-27T17:55:00.273Z,16.39
2022-12-27T17:58:06.099Z,16.42
2022-12-27T18:01:08.357Z,16.61
2022-12-27T18:04:19.870Z,16.71
2022-12-27T18:07:30.314Z,17.59
2022-12-27T18:10:34.749Z,18.25
2022-12-27T18:13:44.712Z,18.32
2022-12-27T18:16:47.867Z,18.16
2022-12-27T18:19:49.935Z,18.12
2022-12-27T18:23:01.140Z,18.35
2022-12-27T18:26:13.395Z,18.47
2022-12-27T18:29:16.146Z,18.19
2022-12-27T18:32:19.519Z,18.19
2022-12-27T18:35:24.428Z,18.23
2022-12-27T18:38:32.641Z,18.16
2022-12-27T18:41:47.803Z,18.07
2022-12-27T18:44:55.204Z,18.12
2022-12-27T18:48:02.369Z,18.01
2022-12-27T18:51:22.602Z,18.04
2022-12-27T18:54:29.745Z,17.98
2022-12-27T18:57:37.745Z,17.79
2022-12-27T19:00:54.891Z,17.84
2022-12-27T19:04:17.558Z,17.83
2022-12-27T19:07:19.899Z,17.62
2022-12-27T19:10:25.656Z,17.52
2022-12-27T19:13:49.911Z,17.48
2022-12-27T19:16:56.160Z,17.48
2022-12-27T19:20:03.346Z,17.49
2022-12-27T19:23:24.279Z,17.42
2022-12-27T19:26:32.974Z,17.45
2022-12-27T19:29:40.997Z,17.48
2022-12-27T19:32:44.730Z,17.44
2022-12-27T19:35:46.802Z,17.51
2022-12-27T19:38:51.634Z,17.35
2022-12-27T19:42:01.016Z,17.44
2022-12-27T19:45:10.878Z,17.39
2022-12-27T19:48:14.028Z,17.38
2022-12-27T19:51:19.324Z,17.21
2022-12-27T19:54:23.141Z,17.23
2022-12-27T19:57:25.349Z,17.17
2022-12-27T20:00:28.022Z,17.04
2022-12-27T20:03:30.790Z,17.19
2022-12-27T20:06:33.987Z,17.19
2022-12-27T20:09:36.030Z,17.03
2022-12-27T20:12:38.163Z,17.07
2022-12-27T20:15:40.270Z,16.89
2022-12-27T20:18:43.838Z,16.78
2022-12-27T20:21:47.336Z,16.71
2022-12-27T20:24:49.491Z,16.62
2022-12-27T20:27:51.732Z,16.60
2022-12-27T20:30:53.831Z,16.49
2022-12-27T20:33:56.458Z,16.50
2022-12-27T20:36:58.729Z,16.43
2022-12-27T20:40:00.791Z,16.38
2022-12-27T20:43:03.164Z,16.28
2022-12-27T20:46:16.729Z,16.21
2022-12-27T20:49:18.867Z,16.23
2022-12-27T20:52:25.699Z,16.16
2022-12-27T20:55:33.496Z,16.03
2022-12-27T20:58:35.848Z,16.12
2022-12-27T21:01:38.066Z,15.96
2022-12-27T21:04:41.021Z,15.91
2022-12-27T21:07:43.106Z,15.91
2022-12-27T21:10:45.122Z,15.81
2022-12-27T21:13:48.900Z,15.86
2022-12-27T21:16:52.869Z,15.71
2022-12-27T21:19:55.274Z,15.68
2022-12-27T21:22:57.365Z,15.80
2022-12-27T21:26:09.040Z,15.72
2022-12-27T21:29:14.410Z,15.70
2022-12-27T21:32:17.933Z,15.70
2022-12-27T21:35:20.231Z,15.73
2022-12-27T21:38:22.508Z,15.69
2022-12-27T21:41:27.519Z,15.69
2022-12-27T21:44:30.080Z,15.53
2022-12-27T21:47:32.756Z,15.57
2022-12-27T21:50:37.411Z,15.44
2022-12-27T21:53:40.282Z,15.49
2022-12-27T21:56:42.609Z,15.53
2022-12-27T21:59:44.867Z,15.52
2022-12-27T22:02:47.073Z,15.46
2022-12-27T22:05:49.212Z,15.43
2022-12-27T22:08:53.876Z,15.36
2022-12-27T22:11:55.942Z,15.35
2022-12-27T22:14:57.963Z,15.31
2022-12-27T22:18:00.043Z,15.28
2022-12-27T22:21:04.920Z,15.37
2022-12-27T22:24:11.955Z,15.26
2022-12-27T22:27:14.084Z,15.26
2022-12-27T22:30:16.222Z,15.25
2022-12-27T22:33:18.260Z,15.06
2022-12-27T22:36:22.971Z,15.09
2022-12-27T22:39:24.953Z,15.06
2022-12-27T22:42:27.081Z,15.05
2022-12-27T22:45:29.188Z,15.13
2022-12-27T22:48:31.204Z,15.16
2022-12-27T22:51:36.252Z,15.00
2022-12-27T22:55:05.595Z,15.00
2022-12-27T22:58:00.329Z,15.05
2022-12-27T23:01:02.341Z,15.04
2022-12-27T23:04:06.312Z,15.03
2022-12-27T23:07:08.398Z,14.88
2022-12-27T23:10:10.494Z,14.92
2022-12-27T23:13:12.449Z,14.97
2022-12-27T23:16:15.383Z,14.81
2022-12-27T23:19:21.407Z,14.90
2022-12-27T23:22:23.467Z,14.84
2022-12-27T23:25:25.457Z,14.89
2022-12-27T23:28:27.537Z,14.82
2022-12-27T23:31:30.699Z,14.87
2022-12-27T23:34:32.838Z,15.02
2022-12-27T23:37:34.947Z,14.84
2022-12-27T23:40:36.952Z,14.95
2022-12-27T23:43:56.225Z,14.97
2022-12-27T23:46:58.573Z,14.88
2022-12-27T23:50:00.816Z,15.01
2022-12-27T23:53:03.278Z,14.91
2022-12-27T23:56:20.810Z,15.05
2022-12-27T23:59:23.520Z,15.08
